sensor_id;sensor_type;location;lat;lon;timestamp;P1;durP1;ratioP1;P2;durP2;ratioP2
71296;SDS011;59082;50.658;4.608;2022-12-18T00:00:39;17.35;;;9.65;;
71296;SDS011;59082;50.658;4.608;2022-12-18T00:03:07;14.07;;;8.70;;
71296;SDS011;59082;50.658;4.608;2022-12-18T00:05:33;23.90;;;10.95;;
71296;SDS011;59082;50.658;4.608;2022-12-18T00:07:59;30.03;;;12.43;;
71296;SDS011;59082;50.658;4.608;2022-12-18T00:10:24;23.15;;;10.07;;
71296;SDS011;59082;50.658;4.608;2022-12-18T00:12:50;15.85;;;9.25;;
71296;SDS011;59082;50.658;4.608;2022-12-18T00:15:15;14.80;;;8.47;;
71296;SDS011;59082;50.658;4.608;2022-12-18T00:17:41;20.77;;;9.82;;
71296;SDS011;59082;50.658;4.608;2022-12-18T00:20:07;20.23;;;8.77;;
71296;SDS011;59082;50.658;4.608;2022-12-18T00:22:33;11.77;;;8.70;;
71296;SDS011;59082;50.658;4.608;2022-12-18T00:24:58;50.37;;;16.93;;
71296;SDS011;59082;50.658;4.608;2022-12-18T00:27:24;61.43;;;19.90;;
71296;SDS011;59082;50.658;4.608;2022-12-18T00:29:49;49.65;;;17.20;;
71296;SDS011;59082;50.658;4.608;2022-12-18T00:32:15;30.40;;;12.97;;
71296;SDS011;59082;50.658;4.608;2022-12-18T00:34:40;28.13;;;10.10;;
71296;SDS011;59082;50.658;4.608;2022-12-18T00:37:06;32.43;;;11.20;;
71296;SDS011;59082;50.658;4.608;2022-12-18T00:39:31;25.80;;;10.75;;
71296;SDS011;59082;50.658;4.608;2022-12-18T00:41:57;32.90;;;11.67;;
71296;SDS011;59082;50.658;4.608;2022-12-18T00:44:41;20.75;;;10.23;;
71296;SDS011;59082;50.658;4.608;2022-12-18T00:47:06;17.03;;;8.83;;
71296;SDS011;59082;50.658;4.608;2022-12-18T00:49:32;16.00;;;8.60;;
71296;SDS011;59082;50.658;4.608;2022-12-18T00:51:57;17.48;;;8.63;;
71296;SDS011;59082;50.658;4.608;2022-12-18T00:54:23;13.13;;;7.20;;
71296;SDS011;59082;50.658;4.608;2022-12-18T00:56:49;15.60;;;7.90;;
71296;SDS011;59082;50.658;4.608;2022-12-18T00:59:14;13.73;;;8.97;;
71296;SDS011;59082;50.658;4.608;2022-12-18T01:01:41;13.25;;;6.85;;
71296;SDS011;59082;50.658;4.608;2022-12-18T01:04:07;12.65;;;7.32;;
71296;SDS011;59082;50.658;4.608;2022-12-18T01:06:33;11.53;;;6.93;;
71296;SDS011;59082;50.658;4.608;2022-12-18T01:08:58;15.27;;;6.50;;
71296;SDS011;59082;50.658;4.608;2022-12-18T01:11:24;14.80;;;7.90;;
71296;SDS011;59082;50.658;4.608;2022-12-18T01:13:51;12.77;;;6.93;;
71296;SDS011;59082;50.658;4.608;2022-12-18T01:16:17;10.02;;;6.30;;
71296;SDS011;59082;50.658;4.608;2022-12-18T01:18:43;12.88;;;6.88;;
71296;SDS011;59082;50.658;4.608;2022-12-18T01:21:10;11.17;;;6.00;;
71296;SDS011;59082;50.658;4.608;2022-12-18T01:23:39;13.95;;;6.00;;
71296;SDS011;59082;50.658;4.608;2022-12-18T01:26:05;10.52;;;5.57;;
71296;SDS011;59082;50.658;4.608;2022-12-18T01:28:34;10.88;;;6.43;;
71296;SDS011;59082;50.658;4.608;2022-12-18T01:33:55;11.60;;;5.67;;
71296;SDS011;59082;50.658;4.608;2022-12-18T01:36:22;11.18;;;5.78;;
71296;SDS011;59082;50.658;4.608;2022-12-18T01:38:53;9.05;;;6.25;;
71296;SDS011;59082;50.658;4.608;2022-12-18T01:41:20;11.95;;;6.03;;
71296;SDS011;59082;50.658;4.608;2022-12-18T01:43:52;13.10;;;6.63;;
71296;SDS011;59082;50.658;4.608;2022-12-18T01:46:20;11.13;;;6.10;;
71296;SDS011;59082;50.658;4.608;2022-12-18T01:49:00;11.32;;;6.63;;
71296;SDS011;59082;50.658;4.608;2022-12-18T01:51:26;11.30;;;6.50;;
71296;SDS011;59082;50.658;4.608;2022-12-18T01:53:54;11.43;;;5.70;;
71296;SDS011;59082;50.658;4.608;2022-12-18T01:56:20;9.97;;;5.30;;
71296;SDS011;59082;50.658;4.608;2022-12-18T01:59:02;10.40;;;5.90;;
71296;SDS011;59082;50.658;4.608;2022-12-18T02:01:31;9.63;;;5.70;;
71296;SDS011;59082;50.658;4.608;2022-12-18T02:04:16;11.43;;;6.57;;
71296;SDS011;59082;50.658;4.608;2022-12-18T02:06:50;9.15;;;5.65;;
71296;SDS011;59082;50.658;4.608;2022-12-18T02:09:24;8.20;;;5.53;;
71296;SDS011;59082;50.658;4.608;2022-12-18T02:12:39;10.77;;;5.65;;
71296;SDS011;59082;50.658;4.608;2022-12-18T02:14:55;10.05;;;6.43;;
71296;SDS011;59082;50.658;4.608;2022-12-18T02:17:35;9.73;;;6.07;;
71296;SDS011;59082;50.658;4.608;2022-12-18T02:27:58;8.65;;;4.57;;
71296;SDS011;59082;50.658;4.608;2022-12-18T02:30:27;11.80;;;6.63;;
71296;SDS011;59082;50.658;4.608;2022-12-18T02:32:56;9.95;;;5.72;;
71296;SDS011;59082;50.658;4.608;2022-12-18T02:35:24;10.18;;;6.43;;
71296;SDS011;59082;50.658;4.608;2022-12-18T02:37:52;13.27;;;6.32;;
71296;SDS011;59082;50.658;4.608;2022-12-18T02:40:19;8.77;;;5.63;;
71296;SDS011;59082;50.658;4.608;2022-12-18T02:42:47;11.82;;;6.45;;
71296;SDS011;59082;50.658;4.608;2022-12-18T02:45:12;9.23;;;5.80;;
71296;SDS011;59082;50.658;4.608;2022-12-18T02:47:39;11.77;;;5.85;;
71296;SDS011;59082;50.658;4.608;2022-12-18T02:50:18;9.13;;;5.20;;
71296;SDS011;59082;50.658;4.608;2022-12-18T02:55:47;8.52;;;5.00;;
71296;SDS011;59082;50.658;4.608;2022-12-18T02:58:26;8.27;;;5.20;;
71296;SDS011;59082;50.658;4.608;2022-12-18T03:01:43;9.68;;;5.15;;
71296;SDS011;59082;50.658;4.608;2022-12-18T03:04:28;8.33;;;5.30;;
71296;SDS011;59082;50.658;4.608;2022-12-18T03:06:59;9.88;;;5.32;;
71296;SDS011;59082;50.658;4.608;2022-12-18T03:09:36;10.10;;;5.38;;
71296;SDS011;59082;50.658;4.608;2022-12-18T03:12:07;10.43;;;5.32;;
71296;SDS011;59082;50.658;4.608;2022-12-18T03:15:34;10.75;;;5.85;;
71296;SDS011;59082;50.658;4.608;2022-12-18T03:17:40;9.93;;;5.47;;
71296;SDS011;59082;50.658;4.608;2022-12-18T03:20:12;9.50;;;5.38;;
71296;SDS011;59082;50.658;4.608;2022-12-18T03:22:41;10.23;;;5.40;;
71296;SDS011;59082;50.658;4.608;2022-12-18T03:25:11;9.02;;;5.65;;
71296;SDS011;59082;50.658;4.608;2022-12-18T03:27:41;10.45;;;6.00;;
71296;SDS011;59082;50.658;4.608;2022-12-18T03:30:12;6.60;;;4.70;;
71296;SDS011;59082;50.658;4.608;2022-12-18T03:35:36;9.38;;;5.55;;
71296;SDS011;59082;50.658;4.608;2022-12-18T03:38:04;8.60;;;5.68;;
71296;SDS011;59082;50.658;4.608;2022-12-18T03:40:32;8.85;;;4.80;;
71296;SDS011;59082;50.658;4.608;2022-12-18T03:43:18;8.63;;;5.53;;
71296;SDS011;59082;50.658;4.608;2022-12-18T03:45:51;6.95;;;4.85;;
71296;SDS011;59082;50.658;4.608;2022-12-18T03:48:26;6.90;;;4.43;;
71296;SDS011;59082;50.658;4.608;2022-12-18T03:50:58;9.70;;;4.78;;
71296;SDS011;59082;50.658;4.608;2022-12-18T03:56:14;6.93;;;4.47;;
71296;SDS011;59082;50.658;4.608;2022-12-18T03:58:41;7.50;;;5.07;;
71296;SDS011;59082;50.658;4.608;2022-12-18T04:01:09;7.55;;;4.47;;
71296;SDS011;59082;50.658;4.608;2022-12-18T04:03:38;7.13;;;4.45;;
71296;SDS011;59082;50.658;4.608;2022-12-18T04:06:05;7.18;;;4.18;;
71296;SDS011;59082;50.658;4.608;2022-12-18T04:08:31;7.13;;;4.57;;
71296;SDS011;59082;50.658;4.608;2022-12-18T04:10:59;5.93;;;3.83;;
71296;SDS011;59082;50.658;4.608;2022-12-18T04:13:29;5.20;;;4.10;;
71296;SDS011;59082;50.658;4.608;2022-12-18T04:15:59;7.45;;;4.32;;
71296;SDS011;59082;50.658;4.608;2022-12-18T04:18:24;7.07;;;3.83;;
71296;SDS011;59082;50.658;4.608;2022-12-18T04:20:50;5.65;;;3.63;;
71296;SDS011;59082;50.658;4.608;2022-12-18T04:23:15;6.70;;;4.00;;
71296;SDS011;59082;50.658;4.608;2022-12-18T04:25:41;6.67;;;4.00;;
71296;SDS011;59082;50.658;4.608;2022-12-18T04:28:07;6.13;;;3.92;;
71296;SDS011;59082;50.658;4.608;2022-12-18T04:30:32;5.27;;;3.67;;
71296;SDS011;59082;50.658;4.608;2022-12-18T04:32:58;6.38;;;4.45;;
71296;SDS011;59082;50.658;4.608;2022-12-18T04:35:23;7.18;;;4.82;;
71296;SDS011;59082;50.658;4.608;2022-12-18T04:37:49;8.93;;;4.50;;
71296;SDS011;59082;50.658;4.608;2022-12-18T04:40:14;8.57;;;4.87;;
71296;SDS011;59082;50.658;4.608;2022-12-18T04:42:40;7.35;;;4.35;;
71296;SDS011;59082;50.658;4.608;2022-12-18T04:45:06;5.33;;;3.60;;
71296;SDS011;59082;50.658;4.608;2022-12-18T04:47:32;7.55;;;4.80;;
71296;SDS011;59082;50.658;4.608;2022-12-18T04:49:58;8.73;;;4.53;;
71296;SDS011;59082;50.658;4.608;2022-12-18T04:52:23;10.90;;;4.97;;
71296;SDS011;59082;50.658;4.608;2022-12-18T04:54:49;6.70;;;4.30;;
71296;SDS011;59082;50.658;4.608;2022-12-18T04:57:14;8.63;;;4.57;;
71296;SDS011;59082;50.658;4.608;2022-12-18T04:59:40;8.95;;;4.93;;
71296;SDS011;59082;50.658;4.608;2022-12-18T05:02:05;10.97;;;4.47;;
71296;SDS011;59082;50.658;4.608;2022-12-18T05:04:31;6.87;;;4.23;;
71296;SDS011;59082;50.658;4.608;2022-12-18T05:06:56;7.20;;;4.50;;
71296;SDS011;59082;50.658;4.608;2022-12-18T05:09:22;8.18;;;4.50;;
71296;SDS011;59082;50.658;4.608;2022-12-18T05:11:48;6.43;;;4.37;;
71296;SDS011;59082;50.658;4.608;2022-12-18T05:14:14;5.95;;;3.75;;
71296;SDS011;59082;50.658;4.608;2022-12-18T05:16:39;8.23;;;3.87;;
71296;SDS011;59082;50.658;4.608;2022-12-18T05:19:05;7.83;;;3.90;;
71296;SDS011;59082;50.658;4.608;2022-12-18T05:21:30;7.20;;;4.45;;
71296;SDS011;59082;50.658;4.608;2022-12-18T05:23:56;8.20;;;4.87;;
71296;SDS011;59082;50.658;4.608;2022-12-18T05:26:21;8.53;;;4.40;;
71296;SDS011;59082;50.658;4.608;2022-12-18T05:28:47;6.05;;;4.43;;
71296;SDS011;59082;50.658;4.608;2022-12-18T05:31:12;8.07;;;4.30;;
71296;SDS011;59082;50.658;4.608;2022-12-18T05:33:38;5.20;;;3.95;;
71296;SDS011;59082;50.658;4.608;2022-12-18T05:36:05;6.07;;;4.40;;
71296;SDS011;59082;50.658;4.608;2022-12-18T05:38:33;6.75;;;4.05;;
71296;SDS011;59082;50.658;4.608;2022-12-18T05:41:00;10.03;;;4.63;;
71296;SDS011;59082;50.658;4.608;2022-12-18T05:43:25;6.15;;;4.47;;
71296;SDS011;59082;50.658;4.608;2022-12-18T05:45:51;6.97;;;3.38;;
71296;SDS011;59082;50.658;4.608;2022-12-18T05:48:18;6.07;;;3.57;;
71296;SDS011;59082;50.658;4.608;2022-12-18T05:50:44;8.65;;;4.18;;
71296;SDS011;59082;50.658;4.608;2022-12-18T05:53:12;5.82;;;4.32;;
71296;SDS011;59082;50.658;4.608;2022-12-18T05:55:39;6.95;;;4.45;;
71296;SDS011;59082;50.658;4.608;2022-12-18T05:58:06;8.15;;;4.25;;
71296;SDS011;59082;50.658;4.608;2022-12-18T06:00:35;6.63;;;4.33;;
71296;SDS011;59082;50.658;4.608;2022-12-18T06:03:04;6.45;;;3.63;;
71296;SDS011;59082;50.658;4.608;2022-12-18T06:05:34;6.35;;;4.60;;
71296;SDS011;59082;50.658;4.608;2022-12-18T06:08:04;7.20;;;4.50;;
71296;SDS011;59082;50.658;4.608;2022-12-18T06:10:30;4.90;;;3.47;;
71296;SDS011;59082;50.658;4.608;2022-12-18T06:12:56;8.27;;;4.07;;
71296;SDS011;59082;50.658;4.608;2022-12-18T06:15:22;6.32;;;4.03;;
71296;SDS011;59082;50.658;4.608;2022-12-18T06:17:47;5.47;;;4.37;;
71296;SDS011;59082;50.658;4.608;2022-12-18T06:20:13;8.27;;;4.77;;
71296;SDS011;59082;50.658;4.608;2022-12-18T06:22:38;10.70;;;4.95;;
71296;SDS011;59082;50.658;4.608;2022-12-18T06:25:04;6.83;;;4.23;;
71296;SDS011;59082;50.658;4.608;2022-12-18T06:27:31;13.15;;;4.68;;
71296;SDS011;59082;50.658;4.608;2022-12-18T06:29:58;5.93;;;4.05;;
71296;SDS011;59082;50.658;4.608;2022-12-18T06:32:24;8.33;;;4.77;;
71296;SDS011;59082;50.658;4.608;2022-12-18T06:34:50;6.57;;;4.35;;
71296;SDS011;59082;50.658;4.608;2022-12-18T06:37:16;9.03;;;4.57;;
71296;SDS011;59082;50.658;4.608;2022-12-18T06:39:41;9.57;;;4.93;;
71296;SDS011;59082;50.658;4.608;2022-12-18T06:42:07;9.50;;;4.47;;
71296;SDS011;59082;50.658;4.608;2022-12-18T06:44:32;9.10;;;4.30;;
71296;SDS011;59082;50.658;4.608;2022-12-18T06:46:58;10.32;;;5.50;;
71296;SDS011;59082;50.658;4.608;2022-12-18T06:49:23;6.33;;;4.43;;
71296;SDS011;59082;50.658;4.608;2022-12-18T06:51:49;7.97;;;4.20;;
71296;SDS011;59082;50.658;4.608;2022-12-18T06:54:15;7.05;;;4.55;;
71296;SDS011;59082;50.658;4.608;2022-12-18T06:56:40;7.20;;;4.37;;
71296;SDS011;59082;50.658;4.608;2022-12-18T06:59:06;8.27;;;4.72;;
71296;SDS011;59082;50.658;4.608;2022-12-18T07:01:32;7.17;;;5.07;;
71296;SDS011;59082;50.658;4.608;2022-12-18T07:03:57;7.97;;;5.33;;
71296;SDS011;59082;50.658;4.608;2022-12-18T07:06:24;7.85;;;4.57;;
71296;SDS011;59082;50.658;4.608;2022-12-18T07:08:51;8.60;;;4.45;;
71296;SDS011;59082;50.658;4.608;2022-12-18T07:11:19;8.60;;;4.37;;
71296;SDS011;59082;50.658;4.608;2022-12-18T07:13:46;8.02;;;4.40;;
71296;SDS011;59082;50.658;4.608;2022-12-18T07:16:13;7.03;;;3.90;;
71296;SDS011;59082;50.658;4.608;2022-12-18T07:18:40;6.57;;;4.30;;
71296;SDS011;59082;50.658;4.608;2022-12-18T07:21:07;6.45;;;4.30;;
71296;SDS011;59082;50.658;4.608;2022-12-18T07:23:35;10.30;;;4.90;;
71296;SDS011;59082;50.658;4.608;2022-12-18T07:26:02;6.05;;;3.90;;
71296;SDS011;59082;50.658;4.608;2022-12-18T07:28:38;5.50;;;4.30;;
71296;SDS011;59082;50.658;4.608;2022-12-18T07:31:06;5.72;;;3.90;;
71296;SDS011;59082;50.658;4.608;2022-12-18T07:33:32;8.13;;;4.47;;
71296;SDS011;59082;50.658;4.608;2022-12-18T07:36:07;5.90;;;4.30;;
71296;SDS011;59082;50.658;4.608;2022-12-18T07:38:35;10.82;;;4.65;;
71296;SDS011;59082;50.658;4.608;2022-12-18T07:41:05;7.70;;;4.68;;
71296;SDS011;59082;50.658;4.608;2022-12-18T07:43:35;5.65;;;4.25;;
71296;SDS011;59082;50.658;4.608;2022-12-18T07:46:02;6.63;;;4.57;;
71296;SDS011;59082;50.658;4.608;2022-12-18T07:48:28;8.13;;;4.93;;
71296;SDS011;59082;50.658;4.608;2022-12-18T07:51:00;9.82;;;5.50;;
71296;SDS011;59082;50.658;4.608;2022-12-18T07:53:26;8.50;;;4.63;;
71296;SDS011;59082;50.658;4.608;2022-12-18T07:55:58;8.30;;;4.80;;
71296;SDS011;59082;50.658;4.608;2022-12-18T07:58:25;8.80;;;4.65;;
71296;SDS011;59082;50.658;4.608;2022-12-18T08:00:51;6.82;;;4.60;;
71296;SDS011;59082;50.658;4.608;2022-12-18T08:03:17;4.83;;;4.20;;
71296;SDS011;59082;50.658;4.608;2022-12-18T08:05:43;7.18;;;4.60;;
71296;SDS011;59082;50.658;4.608;2022-12-18T08:08:09;8.38;;;5.13;;
71296;SDS011;59082;50.658;4.608;2022-12-18T08:10:34;7.80;;;4.17;;
71296;SDS011;59082;50.658;4.608;2022-12-18T08:13:00;10.93;;;5.60;;
71296;SDS011;59082;50.658;4.608;2022-12-18T08:15:25;9.20;;;5.53;;
71296;SDS011;59082;50.658;4.608;2022-12-18T08:17:51;8.73;;;5.63;;
71296;SDS011;59082;50.658;4.608;2022-12-18T08:20:17;7.20;;;5.32;;
71296;SDS011;59082;50.658;4.608;2022-12-18T08:22:43;13.03;;;6.33;;
71296;SDS011;59082;50.658;4.608;2022-12-18T08:25:09;9.98;;;6.80;;
71296;SDS011;59082;50.658;4.608;2022-12-18T08:27:36;11.27;;;6.78;;
71296;SDS011;59082;50.658;4.608;2022-12-18T08:30:02;7.78;;;5.72;;
71296;SDS011;59082;50.658;4.608;2022-12-18T08:32:29;11.33;;;6.03;;
71296;SDS011;59082;50.658;4.608;2022-12-18T08:34:55;13.23;;;5.70;;
71296;SDS011;59082;50.658;4.608;2022-12-18T08:37:20;11.30;;;6.65;;
71296;SDS011;59082;50.658;4.608;2022-12-18T08:39:46;19.95;;;9.05;;
71296;SDS011;59082;50.658;4.608;2022-12-18T08:42:11;28.63;;;15.33;;
71296;SDS011;59082;50.658;4.608;2022-12-18T08:44:55;19.75;;;9.05;;
71296;SDS011;59082;50.658;4.608;2022-12-18T08:47:21;26.43;;;13.50;;
71296;SDS011;59082;50.658;4.608;2022-12-18T08:49:46;13.87;;;9.30;;
71296;SDS011;59082;50.658;4.608;2022-12-18T08:52:11;11.27;;;6.82;;
71296;SDS011;59082;50.658;4.608;2022-12-18T08:54:37;13.97;;;7.90;;
71296;SDS011;59082;50.658;4.608;2022-12-18T08:57:02;10.20;;;7.20;;
71296;SDS011;59082;50.658;4.608;2022-12-18T08:59:28;13.55;;;7.90;;
71296;SDS011;59082;50.658;4.608;2022-12-18T09:01:54;9.90;;;5.88;;
71296;SDS011;59082;50.658;4.608;2022-12-18T09:04:20;9.30;;;6.38;;
71296;SDS011;59082;50.658;4.608;2022-12-18T09:06:46;12.30;;;6.53;;
71296;SDS011;59082;50.658;4.608;2022-12-18T09:09:12;11.15;;;6.97;;
71296;SDS011;59082;50.658;4.608;2022-12-18T09:11:37;11.93;;;6.07;;
71296;SDS011;59082;50.658;4.608;2022-12-18T09:14:03;9.77;;;5.78;;
71296;SDS011;59082;50.658;4.608;2022-12-18T09:16:29;11.25;;;7.18;;
71296;SDS011;59082;50.658;4.608;2022-12-18T09:18:56;13.82;;;6.95;;
71296;SDS011;59082;50.658;4.608;2022-12-18T09:21:25;10.05;;;6.72;;
71296;SDS011;59082;50.658;4.608;2022-12-18T09:23:58;13.75;;;6.18;;
71296;SDS011;59082;50.658;4.608;2022-12-18T09:26:24;10.45;;;6.63;;
71296;SDS011;59082;50.658;4.608;2022-12-18T09:31:28;11.77;;;6.72;;
71296;SDS011;59082;50.658;4.608;2022-12-18T09:33:54;12.47;;;7.07;;
71296;SDS011;59082;50.658;4.608;2022-12-18T09:36:20;12.80;;;6.60;;
71296;SDS011;59082;50.658;4.608;2022-12-18T09:38:46;11.80;;;7.68;;
71296;SDS011;59082;50.658;4.608;2022-12-18T09:44:25;13.93;;;7.15;;
71296;SDS011;59082;50.658;4.608;2022-12-18T09:47:04;12.65;;;7.80;;
71296;SDS011;59082;50.658;4.608;2022-12-18T09:49:44;13.25;;;7.15;;
71296;SDS011;59082;50.658;4.608;2022-12-18T09:52:34;11.40;;;7.15;;
71296;SDS011;59082;50.658;4.608;2022-12-18T09:55:09;12.07;;;7.78;;
71296;SDS011;59082;50.658;4.608;2022-12-18T09:57:48;13.63;;;7.72;;
71296;SDS011;59082;50.658;4.608;2022-12-18T10:00:23;13.48;;;8.93;;
71296;SDS011;59082;50.658;4.608;2022-12-18T10:02:57;10.93;;;8.55;;
71296;SDS011;59082;50.658;4.608;2022-12-18T10:05:32;12.55;;;8.43;;
71296;SDS011;59082;50.658;4.608;2022-12-18T10:08:13;11.80;;;7.13;;
71296;SDS011;59082;50.658;4.608;2022-12-18T10:10:53;10.85;;;6.95;;
71296;SDS011;59082;50.658;4.608;2022-12-18T10:13:33;12.45;;;7.72;;
71296;SDS011;59082;50.658;4.608;2022-12-18T10:16:17;12.43;;;7.63;;
71296;SDS011;59082;50.658;4.608;2022-12-18T10:21:39;13.25;;;7.65;;
71296;SDS011;59082;50.658;4.608;2022-12-18T10:27:12;11.43;;;8.15;;
71296;SDS011;59082;50.658;4.608;2022-12-18T10:29:41;13.55;;;6.93;;
71296;SDS011;59082;50.658;4.608;2022-12-18T10:32:15;13.93;;;7.97;;
71296;SDS011;59082;50.658;4.608;2022-12-18T10:34:50;9.68;;;7.10;;
71296;SDS011;59082;50.658;4.608;2022-12-18T10:37:18;12.55;;;7.82;;
71296;SDS011;59082;50.658;4.608;2022-12-18T10:39:46;12.60;;;7.85;;
71296;SDS011;59082;50.658;4.608;2022-12-18T10:42:40;11.65;;;7.80;;
71296;SDS011;59082;50.658;4.608;2022-12-18T10:47:35;12.00;;;7.38;;
71296;SDS011;59082;50.658;4.608;2022-12-18T10:50:01;11.80;;;7.35;;
71296;SDS011;59082;50.658;4.608;2022-12-18T10:52:27;11.85;;;8.15;;
71296;SDS011;59082;50.658;4.608;2022-12-18T10:54:59;11.73;;;7.13;;
71296;SDS011;59082;50.658;4.608;2022-12-18T10:57:35;12.63;;;6.90;;
71296;SDS011;59082;50.658;4.608;2022-12-18T11:02:47;12.55;;;7.13;;
71296;SDS011;59082;50.658;4.608;2022-12-18T11:05:29;12.20;;;7.40;;
71296;SDS011;59082;50.658;4.608;2022-12-18T11:07:57;12.55;;;7.90;;
71296;SDS011;59082;50.658;4.608;2022-12-18T11:10:31;13.00;;;8.10;;
71296;SDS011;59082;50.658;4.608;2022-12-18T11:13:11;13.05;;;7.85;;
71296;SDS011;59082;50.658;4.608;2022-12-18T11:15:45;12.00;;;8.15;;
71296;SDS011;59082;50.658;4.608;2022-12-18T11:18:16;11.53;;;6.97;;
71296;SDS011;59082;50.658;4.608;2022-12-18T11:21:09;11.07;;;7.47;;
71296;SDS011;59082;50.658;4.608;2022-12-18T11:23:37;13.52;;;8.23;;
71296;SDS011;59082;50.658;4.608;2022-12-18T11:26:13;13.13;;;8.10;;
71296;SDS011;59082;50.658;4.608;2022-12-18T11:28:40;13.87;;;8.40;;
71296;SDS011;59082;50.658;4.608;2022-12-18T11:36:51;12.50;;;8.55;;
71296;SDS011;59082;50.658;4.608;2022-12-18T11:39:20;15.52;;;9.10;;
71296;SDS011;59082;50.658;4.608;2022-12-18T11:41:57;12.23;;;7.95;;
71296;SDS011;59082;50.658;4.608;2022-12-18T11:44:45;12.93;;;8.82;;
71296;SDS011;59082;50.658;4.608;2022-12-18T11:47:37;16.10;;;9.20;;
71296;SDS011;59082;50.658;4.608;2022-12-18T11:50:14;13.93;;;8.55;;
71296;SDS011;59082;50.658;4.608;2022-12-18T11:52:43;14.80;;;10.15;;
71296;SDS011;59082;50.658;4.608;2022-12-18T11:55:16;14.15;;;8.65;;
71296;SDS011;59082;50.658;4.608;2022-12-18T12:00:27;14.95;;;9.20;;
71296;SDS011;59082;50.658;4.608;2022-12-18T12:08:52;15.63;;;8.68;;
71296;SDS011;59082;50.658;4.608;2022-12-18T12:16:57;12.65;;;8.70;;
71296;SDS011;59082;50.658;4.608;2022-12-18T12:22:23;14.02;;;8.10;;
71296;SDS011;59082;50.658;4.608;2022-12-18T12:27:32;15.57;;;8.80;;
71296;SDS011;59082;50.658;4.608;2022-12-18T12:30:11;13.63;;;9.10;;
71296;SDS011;59082;50.658;4.608;2022-12-18T12:35:59;15.65;;;8.60;;
71296;SDS011;59082;50.658;4.608;2022-12-18T12:38:42;13.75;;;9.23;;
71296;SDS011;59082;50.658;4.608;2022-12-18T12:41:12;14.43;;;9.00;;
71296;SDS011;59082;50.658;4.608;2022-12-18T12:44:01;17.38;;;9.32;;
71296;SDS011;59082;50.658;4.608;2022-12-18T12:46:32;16.52;;;10.15;;
71296;SDS011;59082;50.658;4.608;2022-12-18T12:49:02;16.52;;;10.73;;
71296;SDS011;59082;50.658;4.608;2022-12-18T12:51:38;14.75;;;9.70;;
71296;SDS011;59082;50.658;4.608;2022-12-18T12:54:11;13.80;;;9.07;;
71296;SDS011;59082;50.658;4.608;2022-12-18T12:56:45;19.05;;;10.63;;
71296;SDS011;59082;50.658;4.608;2022-12-18T13:15:38;17.58;;;10.60;;
71296;SDS011;59082;50.658;4.608;2022-12-18T13:20:37;18.87;;;10.77;;
71296;SDS011;59082;50.658;4.608;2022-12-18T13:31:28;19.50;;;10.70;;
71296;SDS011;59082;50.658;4.608;2022-12-18T13:36:43;18.48;;;10.32;;
71296;SDS011;59082;50.658;4.608;2022-12-18T13:39:20;20.35;;;11.40;;
71296;SDS011;59082;50.658;4.608;2022-12-18T13:49:50;20.63;;;11.45;;
71296;SDS011;59082;50.658;4.608;2022-12-18T13:52:25;18.53;;;11.37;;
71296;SDS011;59082;50.658;4.608;2022-12-18T13:54:58;19.92;;;11.75;;
71296;SDS011;59082;50.658;4.608;2022-12-18T14:02:47;17.50;;;10.60;;
71296;SDS011;59082;50.658;4.608;2022-12-18T14:07:47;18.83;;;11.07;;
71296;SDS011;59082;50.658;4.608;2022-12-18T14:10:13;19.90;;;11.80;;
71296;SDS011;59082;50.658;4.608;2022-12-18T14:12:44;21.60;;;11.93;;
71296;SDS011;59082;50.658;4.608;2022-12-18T14:20:40;20.42;;;11.48;;
71296;SDS011;59082;50.658;4.608;2022-12-18T14:23:27;19.42;;;11.60;;
71296;SDS011;59082;50.658;4.608;2022-12-18T14:25:53;23.77;;;12.55;;
71296;SDS011;59082;50.658;4.608;2022-12-18T14:28:18;23.13;;;12.23;;
71296;SDS011;59082;50.658;4.608;2022-12-18T14:30:46;19.38;;;11.80;;
71296;SDS011;59082;50.658;4.608;2022-12-18T14:33:14;21.55;;;11.88;;
71296;SDS011;59082;50.658;4.608;2022-12-18T14:35:55;22.02;;;12.05;;
71296;SDS011;59082;50.658;4.608;2022-12-18T14:38:32;19.97;;;11.97;;
71296;SDS011;59082;50.658;4.608;2022-12-18T14:41:00;21.60;;;11.75;;
71296;SDS011;59082;50.658;4.608;2022-12-18T14:43:29;21.75;;;11.95;;
71296;SDS011;59082;50.658;4.608;2022-12-18T14:45:57;20.65;;;12.10;;
71296;SDS011;59082;50.658;4.608;2022-12-18T14:48:39;19.38;;;11.80;;
71296;SDS011;59082;50.658;4.608;2022-12-18T14:53:42;21.02;;;11.48;;
71296;SDS011;59082;50.658;4.608;2022-12-18T14:56:19;25.65;;;13.57;;
71296;SDS011;59082;50.658;4.608;2022-12-18T14:59:04;25.98;;;12.20;;
71296;SDS011;59082;50.658;4.608;2022-12-18T15:01:39;22.80;;;12.40;;
71296;SDS011;59082;50.658;4.608;2022-12-18T15:07:10;23.13;;;12.77;;
71296;SDS011;59082;50.658;4.608;2022-12-18T15:09:42;22.25;;;12.63;;
71296;SDS011;59082;50.658;4.608;2022-12-18T15:12:32;25.80;;;13.27;;
71296;SDS011;59082;50.658;4.608;2022-12-18T15:14:59;20.98;;;11.77;;
71296;SDS011;59082;50.658;4.608;2022-12-18T15:17:25;23.43;;;11.43;;
71296;SDS011;59082;50.658;4.608;2022-12-18T15:19:52;24.17;;;13.05;;
71296;SDS011;59082;50.658;4.608;2022-12-18T15:24:58;21.53;;;12.10;;
71296;SDS011;59082;50.658;4.608;2022-12-18T15:27:31;23.83;;;12.93;;
71296;SDS011;59082;50.658;4.608;2022-12-18T15:30:15;23.05;;;11.95;;
71296;SDS011;59082;50.658;4.608;2022-12-18T15:32:43;23.85;;;12.80;;
71296;SDS011;59082;50.658;4.608;2022-12-18T15:37:36;23.23;;;11.82;;
71296;SDS011;59082;50.658;4.608;2022-12-18T15:40:04;20.75;;;12.75;;
71296;SDS011;59082;50.658;4.608;2022-12-18T15:42:30;25.10;;;13.77;;
71296;SDS011;59082;50.658;4.608;2022-12-18T15:45:14;22.15;;;12.25;;
71296;SDS011;59082;50.658;4.608;2022-12-18T15:47:40;22.08;;;11.48;;
71296;SDS011;59082;50.658;4.608;2022-12-18T15:50:09;23.63;;;12.70;;
71296;SDS011;59082;50.658;4.608;2022-12-18T15:52:41;23.55;;;12.45;;
71296;SDS011;59082;50.658;4.608;2022-12-18T15:55:19;23.40;;;12.13;;
71296;SDS011;59082;50.658;4.608;2022-12-18T15:58:05;26.02;;;12.98;;
71296;SDS011;59082;50.658;4.608;2022-12-18T16:00:31;25.23;;;13.07;;
71296;SDS011;59082;50.658;4.608;2022-12-18T16:02:58;22.85;;;12.95;;
71296;SDS011;59082;50.658;4.608;2022-12-18T16:05:24;22.00;;;12.33;;
71296;SDS011;59082;50.658;4.608;2022-12-18T16:07:50;22.02;;;11.40;;
71296;SDS011;59082;50.658;4.608;2022-12-18T16:10:16;23.30;;;11.80;;
71296;SDS011;59082;50.658;4.608;2022-12-18T16:12:42;24.38;;;12.65;;
71296;SDS011;59082;50.658;4.608;2022-12-18T16:15:10;24.37;;;12.13;;
71296;SDS011;59082;50.658;4.608;2022-12-18T16:17:39;22.52;;;12.82;;
71296;SDS011;59082;50.658;4.608;2022-12-18T16:20:05;21.70;;;11.82;;
71296;SDS011;59082;50.658;4.608;2022-12-18T16:22:36;22.48;;;12.32;;
71296;SDS011;59082;50.658;4.608;2022-12-18T16:25:02;23.13;;;11.53;;
71296;SDS011;59082;50.658;4.608;2022-12-18T16:27:27;23.87;;;11.83;;
71296;SDS011;59082;50.658;4.608;2022-12-18T16:29:53;21.13;;;11.90;;
71296;SDS011;59082;50.658;4.608;2022-12-18T16:32:19;23.10;;;11.80;;
71296;SDS011;59082;50.658;4.608;2022-12-18T16:34:46;24.08;;;12.23;;
71296;SDS011;59082;50.658;4.608;2022-12-18T16:37:13;21.60;;;11.60;;
71296;SDS011;59082;50.658;4.608;2022-12-18T16:39:40;22.90;;;12.63;;
71296;SDS011;59082;50.658;4.608;2022-12-18T16:42:09;22.67;;;12.02;;
71296;SDS011;59082;50.658;4.608;2022-12-18T16:44:41;21.88;;;12.52;;
71296;SDS011;59082;50.658;4.608;2022-12-18T16:47:08;20.67;;;11.73;;
71296;SDS011;59082;50.658;4.608;2022-12-18T16:49:34;23.50;;;12.50;;
71296;SDS011;59082;50.658;4.608;2022-12-18T16:52:00;23.63;;;11.77;;
71296;SDS011;59082;50.658;4.608;2022-12-18T16:54:25;23.70;;;12.00;;
71296;SDS011;59082;50.658;4.608;2022-12-18T16:56:54;21.90;;;12.55;;